PWSweather.com
Personal Weather Stations
Station Observations
GRD01
Warsaw, LesznoPL 05-084

WarsawLesznoPL 05-084

Lat: 52.257404, Lon: 20.564847

Elevation: 298

Station Type: WH3080

http://pogoda.kampinos.waw.pl

High Low Average
Temperature 69.8°F21.0°C 43.9°F6.6°C 58.8°F14.9°C
Dew Point 52.6°F11.4°C 40.5°F4.7°C 45.9°F7.7°C
Winds 13.6 mph 21.9 kmh Calm Calm 5.0 mph SW8.0 kmh SW
Wind Gusts 23.5 mph37.8 kmh 0.7 mph1.1 kmh 10.0 mph16.1 kmh
Humidity 92% 40% 65%
Pressure 30.81 in1043.3 mb 30.39 in1029.1 mb -
Precipitation 0.00 in0.0 mm - -
Hour Temp Dew Point Humidity Winds Wind Gusts Pressure Precip Precip Rate Daily Precip Total
12:00 AM 46.0°F7.8°C 40.9°F4.9°C 82% Calm Calm 0.7 mph1.1 kmh 30.81 in1043.3 mb 0.00 in0.0 mm 0.00 in0.0 mm 0.00 in0.0 mm
12:10 AM 46.0°F7.8°C 40.9°F4.9°C 82% Calm Calm -- 30.36 in1028.1 mb 0.00 in0.0 mm 0.00 in0.0 mm 0.00 in0.0 mm
12:15 AM 45.7°F7.6°C 40.5°F4.7°C 82% Calm Calm 0.7 mph1.1 kmh 30.81 in1043.3 mb 0.00 in0.0 mm 0.00 in0.0 mm 0.00 in0.0 mm
12:30 AM 45.3°F7.4°C 41.7°F5.4°C 87% Calm Calm 1.6 mph2.6 kmh 30.81 in1043.3 mb 0.00 in0.0 mm 0.00 in0.0 mm 0.00 in0.0 mm
12:40 AM 45.3°F7.4°C 41.7°F5.4°C 87% 0.7 mph SW1.1 kmh SW 1.6 mph2.6 kmh 30.37 in1028.4 mb 0.00 in0.0 mm 0.00 in0.0 mm 0.00 in0.0 mm
12:45 AM 45.3°F7.4°C 42.0°F5.6°C 88% Calm Calm 2.2 mph3.5 kmh 30.80 in1043.0 mb 0.00 in0.0 mm 0.00 in0.0 mm 0.00 in0.0 mm
01:00 AM 45.1°F7.3°C 42.1°F5.6°C 89% 0.7 mph SW1.1 kmh SW 1.6 mph2.6 kmh 30.80 in1043.0 mb 0.00 in0.0 mm 0.00 in0.0 mm 0.00 in0.0 mm
01:10 AM 45.1°F7.3°C 42.1°F5.6°C 89% 0.7 mph SW1.1 kmh SW 1.6 mph2.6 kmh 30.35 in1027.8 mb 0.00 in0.0 mm 0.00 in0.0 mm 0.00 in0.0 mm
01:15 AM 45.0°F7.2°C 41.9°F5.5°C 89% Calm Calm 1.6 mph2.6 kmh 30.80 in1043.0 mb 0.00 in0.0 mm 0.00 in0.0 mm 0.00 in0.0 mm
01:30 AM 45.0°F7.2°C 42.2°F5.7°C 90% 0.7 mph SW1.1 kmh SW 1.6 mph2.6 kmh 30.78 in1042.3 mb 0.00 in0.0 mm 0.00 in0.0 mm 0.00 in0.0 mm
01:40 AM 44.8°F7.1°C 42.0°F5.6°C 90% 0.7 mph SW1.1 kmh SW 1.6 mph2.6 kmh 30.35 in1027.8 mb 0.00 in0.0 mm 0.00 in0.0 mm 0.00 in0.0 mm
01:45 AM 44.8°F7.1°C 42.0°F5.6°C 90% 0.7 mph SW1.1 kmh SW 1.6 mph2.6 kmh 30.79 in1042.7 mb 0.00 in0.0 mm 0.00 in0.0 mm 0.00 in0.0 mm
02:00 AM 44.8°F7.1°C 42.0°F5.6°C 90% 0.7 mph SW1.1 kmh SW 3.1 mph5.0 kmh 30.78 in1042.3 mb 0.00 in0.0 mm 0.00 in0.0 mm 0.00 in0.0 mm
02:10 AM 44.8°F7.1°C 42.0°F5.6°C 90% 0.7 mph SW1.1 kmh SW 1.6 mph2.6 kmh 30.33 in1027.1 mb 0.00 in0.0 mm 0.00 in0.0 mm 0.00 in0.0 mm
02:15 AM 44.6°F7.0°C 42.1°F5.6°C 91% 0.7 mph SW1.1 kmh SW 2.2 mph3.5 kmh 30.78 in1042.3 mb 0.00 in0.0 mm 0.00 in0.0 mm 0.00 in0.0 mm
02:30 AM 44.1°F6.7°C 41.3°F5.2°C 90% 0.7 mph SW1.1 kmh SW 2.2 mph3.5 kmh 30.77 in1042.0 mb 0.00 in0.0 mm 0.00 in0.0 mm 0.00 in0.0 mm
02:41 AM 44.1°F6.7°C 41.3°F5.2°C 90% 1.6 mph SW2.6 kmh SW 1.6 mph2.6 kmh 30.33 in1027.1 mb 0.00 in0.0 mm 0.00 in0.0 mm 0.00 in0.0 mm
02:45 AM 44.1°F6.7°C 41.3°F5.2°C 90% 0.7 mph SW1.1 kmh SW 2.2 mph3.5 kmh 30.77 in1042.0 mb 0.00 in0.0 mm 0.00 in0.0 mm 0.00 in0.0 mm
03:00 AM 44.2°F6.8°C 41.8°F5.4°C 91% Calm Calm 0.7 mph1.1 kmh 30.77 in1042.0 mb 0.00 in0.0 mm 0.00 in0.0 mm 0.00 in0.0 mm
03:11 AM 44.2°F6.8°C 41.8°F5.4°C 91% Calm Calm -- 30.32 in1026.8 mb 0.00 in0.0 mm 0.00 in0.0 mm 0.00 in0.0 mm
03:15 AM 43.9°F6.6°C 41.4°F5.2°C 91% 0.7 mph SW1.1 kmh SW 1.6 mph2.6 kmh 30.76 in1041.7 mb 0.00 in0.0 mm 0.00 in0.0 mm 0.00 in0.0 mm
03:30 AM 44.1°F6.7°C 41.6°F5.3°C 91% 0.7 mph SW1.1 kmh SW 2.2 mph3.5 kmh 30.76 in1041.7 mb 0.00 in0.0 mm 0.00 in0.0 mm 0.00 in0.0 mm
03:41 AM 44.1°F6.7°C 41.6°F5.3°C 91% 0.7 mph SW1.1 kmh SW 1.6 mph2.6 kmh 30.31 in1026.4 mb 0.00 in0.0 mm 0.00 in0.0 mm 0.00 in0.0 mm
03:45 AM 44.1°F6.7°C 41.9°F5.5°C 92% 0.7 mph SW1.1 kmh SW 2.2 mph3.5 kmh 30.75 in1041.3 mb 0.00 in0.0 mm 0.00 in0.0 mm 0.00 in0.0 mm
04:00 AM 43.9°F6.6°C 41.7°F5.4°C 92% Calm Calm 2.2 mph3.5 kmh 30.75 in1041.3 mb 0.00 in0.0 mm 0.00 in0.0 mm 0.00 in0.0 mm
04:11 AM 43.9°F6.6°C 41.7°F5.4°C 92% 0.7 mph SW1.1 kmh SW 1.6 mph2.6 kmh 30.31 in1026.4 mb 0.00 in0.0 mm 0.00 in0.0 mm 0.00 in0.0 mm
04:15 AM 43.9°F6.6°C 41.7°F5.4°C 92% 0.7 mph SW1.1 kmh SW 3.1 mph5.0 kmh 30.75 in1041.3 mb 0.00 in0.0 mm 0.00 in0.0 mm 0.00 in0.0 mm
04:30 AM 43.9°F6.6°C 41.7°F5.4°C 92% 0.7 mph SW1.1 kmh SW 3.8 mph6.1 kmh 30.74 in1041.0 mb 0.00 in0.0 mm 0.00 in0.0 mm 0.00 in0.0 mm
04:41 AM 44.1°F6.7°C 41.9°F5.5°C 92% 0.7 mph SW1.1 kmh SW 1.6 mph2.6 kmh 30.30 in1026.1 mb 0.00 in0.0 mm 0.00 in0.0 mm 0.00 in0.0 mm
04:45 AM 44.6°F7.0°C 42.4°F5.8°C 92% 0.7 mph SW1.1 kmh SW 3.8 mph6.1 kmh 30.74 in1041.0 mb 0.00 in0.0 mm 0.00 in0.0 mm 0.00 in0.0 mm
05:00 AM 44.8°F7.1°C 42.6°F5.9°C 92% 0.7 mph SW1.1 kmh SW 3.1 mph5.0 kmh 30.73 in1040.6 mb 0.00 in0.0 mm 0.00 in0.0 mm 0.00 in0.0 mm
05:11 AM 44.8°F7.1°C 42.6°F5.9°C 92% 0.7 mph SW1.1 kmh SW 1.6 mph2.6 kmh 30.30 in1026.1 mb 0.00 in0.0 mm 0.00 in0.0 mm 0.00 in0.0 mm
05:15 AM 44.8°F7.1°C 42.6°F5.9°C 92% Calm Calm 3.8 mph6.1 kmh 30.73 in1040.6 mb 0.00 in0.0 mm 0.00 in0.0 mm 0.00 in0.0 mm
05:30 AM 44.8°F7.1°C 42.3°F5.7°C 91% 0.7 mph SSW1.1 kmh SSW 3.8 mph6.1 kmh 30.73 in1040.6 mb 0.00 in0.0 mm 0.00 in0.0 mm 0.00 in0.0 mm
05:41 AM 45.0°F7.2°C 42.5°F5.8°C 91% 0.7 mph S1.1 kmh S 1.6 mph2.6 kmh 30.28 in1025.4 mb 0.00 in0.0 mm 0.00 in0.0 mm 0.00 in0.0 mm
05:45 AM 45.1°F7.3°C 42.7°F5.9°C 91% 0.7 mph S1.1 kmh S 3.1 mph5.0 kmh 30.72 in1040.3 mb 0.00 in0.0 mm 0.00 in0.0 mm 0.00 in0.0 mm
06:00 AM 45.7°F7.6°C 41.7°F5.4°C 86% 2.2 mph S3.5 kmh S 3.8 mph6.1 kmh 30.72 in1040.3 mb 0.00 in0.0 mm 0.00 in0.0 mm 0.00 in0.0 mm
06:11 AM 45.9°F7.7°C 41.9°F5.5°C 86% 1.6 mph S2.6 kmh S 2.2 mph3.5 kmh 30.27 in1025.1 mb 0.00 in0.0 mm 0.00 in0.0 mm 0.00 in0.0 mm
06:15 AM 46.6°F8.1°C 42.6°F5.9°C 86% 1.6 mph SSW2.6 kmh SSW 3.8 mph6.1 kmh 30.71 in1040.0 mb 0.00 in0.0 mm 0.00 in0.0 mm 0.00 in0.0 mm
06:30 AM 47.5°F8.6°C 43.5°F6.4°C 86% 2.2 mph SSW3.5 kmh SSW 3.8 mph6.1 kmh 30.71 in1040.0 mb 0.00 in0.0 mm 0.00 in0.0 mm 0.00 in0.0 mm
06:41 AM 47.7°F8.7°C 43.7°F6.5°C 86% 0.7 mph S1.1 kmh S 2.2 mph3.5 kmh 30.27 in1025.1 mb 0.00 in0.0 mm 0.00 in0.0 mm 0.00 in0.0 mm
06:45 AM 48.4°F9.1°C 44.1°F6.7°C 85% 3.8 mph SSW6.1 kmh SSW 5.4 mph8.7 kmh 30.70 in1039.6 mb 0.00 in0.0 mm 0.00 in0.0 mm 0.00 in0.0 mm
07:00 AM 49.1°F9.5°C 44.8°F7.1°C 85% 1.6 mph S2.6 kmh S 3.8 mph6.1 kmh 30.70 in1039.6 mb 0.00 in0.0 mm 0.00 in0.0 mm 0.00 in0.0 mm
07:11 AM 49.6°F9.8°C 45.0°F7.2°C 84% 3.8 mph S6.1 kmh S 6.0 mph9.7 kmh 30.26 in1024.7 mb 0.00 in0.0 mm 0.00 in0.0 mm 0.00 in0.0 mm
07:15 AM 50.5°F10.3°C 45.6°F7.6°C 83% 1.6 mph S2.6 kmh S 6.0 mph9.7 kmh 30.69 in1039.3 mb 0.00 in0.0 mm 0.00 in0.0 mm 0.00 in0.0 mm
07:30 AM 52.2°F11.2°C 46.5°F8.1°C 81% 4.5 mph S7.2 kmh S 9.2 mph14.8 kmh 30.69 in1039.3 mb 0.00 in0.0 mm 0.00 in0.0 mm 0.00 in0.0 mm
07:41 AM 52.3°F11.3°C 46.7°F8.2°C 81% 4.5 mph SW7.2 kmh SW 8.3 mph13.4 kmh 30.25 in1024.4 mb 0.00 in0.0 mm 0.00 in0.0 mm 0.00 in0.0 mm
07:45 AM 53.4°F11.9°C 46.4°F8.0°C 77% 5.4 mph S8.7 kmh S 10.7 mph17.2 kmh 30.68 in1038.9 mb 0.00 in0.0 mm 0.00 in0.0 mm 0.00 in0.0 mm
08:00 AM 54.7°F12.6°C 45.8°F7.7°C 72% 6.9 mph SW11.1 kmh SW 9.2 mph14.8 kmh 30.68 in1038.9 mb 0.00 in0.0 mm 0.00 in0.0 mm 0.00 in0.0 mm
08:11 AM 54.9°F12.7°C 45.6°F7.6°C 71% 6.9 mph S11.1 kmh S 9.2 mph14.8 kmh 30.25 in1024.4 mb 0.00 in0.0 mm 0.00 in0.0 mm 0.00 in0.0 mm
08:15 AM 55.9°F13.3°C 46.3°F7.9°C 70% 9.8 mph SSW15.8 kmh SSW 12.1 mph19.5 kmh 30.69 in1039.3 mb 0.00 in0.0 mm 0.00 in0.0 mm 0.00 in0.0 mm
08:30 AM 57.7°F14.3°C 46.9°F8.3°C 67% 3.8 mph S6.1 kmh S 12.1 mph19.5 kmh 30.67 in1038.6 mb 0.00 in0.0 mm 0.00 in0.0 mm 0.00 in0.0 mm
08:41 AM 57.9°F14.4°C 46.6°F8.1°C 66% 9.2 mph SW14.8 kmh SW 11.4 mph18.3 kmh 30.23 in1023.7 mb 0.00 in0.0 mm 0.00 in0.0 mm 0.00 in0.0 mm
08:45 AM 59.0°F15.0°C 46.4°F8.0°C 63% 7.6 mph SW12.2 kmh SW 16.8 mph27.0 kmh 30.67 in1038.6 mb 0.00 in0.0 mm 0.00 in0.0 mm 0.00 in0.0 mm
09:00 AM 60.1°F15.6°C 46.6°F8.1°C 61% 3.8 mph SSW6.1 kmh SSW 12.1 mph19.5 kmh 30.66 in1038.3 mb 0.00 in0.0 mm 0.00 in0.0 mm 0.00 in0.0 mm
09:11 AM 60.4°F15.8°C 46.9°F8.3°C 61% 6.0 mph SE9.7 kmh SE 9.8 mph15.8 kmh 30.22 in1023.4 mb 0.00 in0.0 mm 0.00 in0.0 mm 0.00 in0.0 mm
09:15 AM 61.3°F16.3°C 47.3°F8.5°C 60% 9.2 mph SW14.8 kmh SW 16.8 mph27.0 kmh 30.66 in1038.3 mb 0.00 in0.0 mm 0.00 in0.0 mm 0.00 in0.0 mm
09:30 AM 62.8°F17.1°C 46.8°F8.2°C 56% 9.2 mph SSW14.8 kmh SSW 15.2 mph24.5 kmh 30.64 in1037.6 mb 0.00 in0.0 mm 0.00 in0.0 mm 0.00 in0.0 mm
09:41 AM 63.0°F17.2°C 46.5°F8.1°C 55% 6.0 mph W9.7 kmh W 7.6 mph12.2 kmh 30.20 in1022.7 mb 0.00 in0.0 mm 0.00 in0.0 mm 0.00 in0.0 mm
09:45 AM 63.3°F17.4°C 46.4°F8.0°C 54% 8.3 mph SSW13.4 kmh SSW 14.5 mph23.3 kmh 30.64 in1037.6 mb 0.00 in0.0 mm 0.00 in0.0 mm 0.00 in0.0 mm
10:00 AM 64.0°F17.8°C 45.0°F7.2°C 50% 10.7 mph SW17.2 kmh SW 15.9 mph25.6 kmh 30.63 in1037.3 mb 0.00 in0.0 mm 0.00 in0.0 mm 0.00 in0.0 mm
10:11 AM 64.0°F17.8°C 45.0°F7.2°C 50% 4.5 mph SW7.2 kmh SW 8.3 mph13.4 kmh 30.19 in1022.4 mb 0.00 in0.0 mm 0.00 in0.0 mm 0.00 in0.0 mm
10:15 AM 64.4°F18.0°C 45.3°F7.4°C 50% 9.8 mph SW15.8 kmh SW 15.2 mph24.5 kmh 30.63 in1037.3 mb 0.00 in0.0 mm 0.00 in0.0 mm 0.00 in0.0 mm
10:30 AM 64.8°F18.2°C 44.6°F7.0°C 48% 9.2 mph SW14.8 kmh SW 17.4 mph28.0 kmh 30.63 in1037.3 mb 0.00 in0.0 mm 0.00 in0.0 mm 0.00 in0.0 mm
10:41 AM 64.8°F18.2°C 44.6°F7.0°C 48% 10.7 mph SW17.2 kmh SW 14.5 mph23.3 kmh 30.18 in1022.0 mb 0.00 in0.0 mm 0.00 in0.0 mm 0.00 in0.0 mm
10:45 AM 65.1°F18.4°C 43.8°F6.6°C 46% 12.1 mph SW19.5 kmh SW 19.0 mph30.6 kmh 30.61 in1036.6 mb 0.00 in0.0 mm 0.00 in0.0 mm 0.00 in0.0 mm
11:00 AM 65.8°F18.8°C 44.5°F6.9°C 46% 7.6 mph SSW12.2 kmh SSW 19.0 mph30.6 kmh 30.61 in1036.6 mb 0.00 in0.0 mm 0.00 in0.0 mm 0.00 in0.0 mm
11:11 AM 65.8°F18.8°C 45.0°F7.2°C 47% 10.7 mph S17.2 kmh S 15.2 mph24.5 kmh 30.16 in1021.3 mb 0.00 in0.0 mm 0.00 in0.0 mm 0.00 in0.0 mm
11:15 AM 66.9°F19.4°C 43.7°F6.5°C 43% 6.9 mph SSW11.1 kmh SSW 19.7 mph31.7 kmh 30.59 in1035.9 mb 0.00 in0.0 mm 0.00 in0.0 mm 0.00 in0.0 mm
11:30 AM 67.6°F19.8°C 43.1°F6.2°C 41% 10.7 mph SSE17.2 kmh SSE 18.3 mph29.5 kmh 30.58 in1035.6 mb 0.00 in0.0 mm 0.00 in0.0 mm 0.00 in0.0 mm
11:41 AM 67.6°F19.8°C 43.1°F6.2°C 41% 6.0 mph SW9.7 kmh SW 15.9 mph25.6 kmh 30.14 in1020.7 mb 0.00 in0.0 mm 0.00 in0.0 mm 0.00 in0.0 mm
11:45 AM 68.4°F20.2°C 43.1°F6.2°C 40% 13.0 mph S20.9 kmh S 18.3 mph29.5 kmh 30.58 in1035.6 mb 0.00 in0.0 mm 0.00 in0.0 mm 0.00 in0.0 mm
12:00 PM 68.5°F20.3°C 43.2°F6.2°C 40% 13.6 mph SSW21.9 kmh SSW 19.7 mph31.7 kmh 30.57 in1035.2 mb 0.00 in0.0 mm 0.00 in0.0 mm 0.00 in0.0 mm
12:11 PM 68.4°F20.2°C 43.1°F6.2°C 40% 9.2 mph W14.8 kmh W 13.6 mph21.9 kmh 30.13 in1020.3 mb 0.00 in0.0 mm 0.00 in0.0 mm 0.00 in0.0 mm
12:15 PM 68.7°F20.4°C 44.1°F6.7°C 41% 7.6 mph SSW12.2 kmh SSW 16.8 mph27.0 kmh 30.56 in1034.9 mb 0.00 in0.0 mm 0.00 in0.0 mm 0.00 in0.0 mm
12:30 PM 69.1°F20.6°C 44.4°F6.9°C 41% 9.2 mph SSW14.8 kmh SSW 21.3 mph34.3 kmh 30.56 in1034.9 mb 0.00 in0.0 mm 0.00 in0.0 mm 0.00 in0.0 mm
12:41 PM 69.1°F20.6°C 44.4°F6.9°C 41% 6.9 mph SE11.1 kmh SE 10.7 mph17.2 kmh 30.11 in1019.6 mb 0.00 in0.0 mm 0.00 in0.0 mm 0.00 in0.0 mm
12:45 PM 69.8°F21.0°C 45.0°F7.2°C 41% 13.6 mph SW21.9 kmh SW 20.6 mph33.2 kmh 30.54 in1034.2 mb 0.00 in0.0 mm 0.00 in0.0 mm 0.00 in0.0 mm
01:00 PM 69.4°F20.8°C 44.1°F6.7°C 40% 9.8 mph SW15.8 kmh SW 18.3 mph29.5 kmh 30.52 in1033.5 mb 0.00 in0.0 mm 0.00 in0.0 mm 0.00 in0.0 mm
01:11 PM 69.4°F20.8°C 44.1°F6.7°C 40% 9.8 mph SW15.8 kmh SW 14.5 mph23.3 kmh 30.08 in1018.6 mb 0.00 in0.0 mm 0.00 in0.0 mm 0.00 in0.0 mm
01:15 PM 69.3°F20.7°C 45.2°F7.3°C 42% 3.8 mph SW6.1 kmh SW 23.5 mph37.8 kmh 30.51 in1033.2 mb 0.00 in0.0 mm 0.00 in0.0 mm 0.00 in0.0 mm
01:30 PM 69.8°F21.0°C 45.0°F7.2°C 41% 10.7 mph S17.2 kmh S 20.6 mph33.2 kmh 30.51 in1033.2 mb 0.00 in0.0 mm 0.00 in0.0 mm 0.00 in0.0 mm
01:41 PM 69.6°F20.9°C 44.2°F6.8°C 40% 11.4 mph SW18.3 kmh SW 15.9 mph25.6 kmh 30.07 in1018.3 mb 0.00 in0.0 mm 0.00 in0.0 mm 0.00 in0.0 mm
01:45 PM 69.3°F20.7°C 44.5°F6.9°C 41% 10.7 mph S17.2 kmh S 22.1 mph35.6 kmh 30.50 in1032.8 mb 0.00 in0.0 mm 0.00 in0.0 mm 0.00 in0.0 mm
02:00 PM 69.6°F20.9°C 44.9°F7.2°C 41% 7.6 mph SSW12.2 kmh SSW 17.4 mph28.0 kmh 30.50 in1032.8 mb 0.00 in0.0 mm 0.00 in0.0 mm 0.00 in0.0 mm
02:11 PM 69.6°F20.9°C 44.9°F7.2°C 41% 8.3 mph SE13.4 kmh SE 12.1 mph19.5 kmh 30.06 in1017.9 mb 0.00 in0.0 mm 0.00 in0.0 mm 0.00 in0.0 mm
02:15 PM 69.6°F20.9°C 45.5°F7.5°C 42% 9.8 mph S15.8 kmh S 17.4 mph28.0 kmh 30.50 in1032.8 mb 0.00 in0.0 mm 0.00 in0.0 mm 0.00 in0.0 mm
02:30 PM 69.8°F21.0°C 46.3°F7.9°C 43% 6.0 mph SSW9.7 kmh SSW 17.4 mph28.0 kmh 30.49 in1032.5 mb 0.00 in0.0 mm 0.00 in0.0 mm 0.00 in0.0 mm
02:41 PM 69.8°F21.0°C 46.3°F7.9°C 43% 4.5 mph SW7.2 kmh SW 9.8 mph15.8 kmh 30.05 in1017.6 mb 0.00 in0.0 mm 0.00 in0.0 mm 0.00 in0.0 mm
02:45 PM 69.8°F21.0°C 46.9°F8.3°C 44% 9.8 mph SSW15.8 kmh SSW 17.4 mph28.0 kmh 30.48 in1032.2 mb 0.00 in0.0 mm 0.00 in0.0 mm 0.00 in0.0 mm
03:00 PM 69.8°F21.0°C 47.5°F8.6°C 45% 9.2 mph SW14.8 kmh SW 18.3 mph29.5 kmh 30.48 in1032.2 mb 0.00 in0.0 mm 0.00 in0.0 mm 0.00 in0.0 mm
03:11 PM 69.8°F21.0°C 47.5°F8.6°C 45% 12.1 mph S19.5 kmh S 15.9 mph25.6 kmh 30.04 in1017.3 mb 0.00 in0.0 mm 0.00 in0.0 mm 0.00 in0.0 mm
03:15 PM 69.8°F21.0°C 48.7°F9.3°C 47% 9.2 mph SSW14.8 kmh SSW 17.4 mph28.0 kmh 30.48 in1032.2 mb 0.00 in0.0 mm 0.00 in0.0 mm 0.00 in0.0 mm
03:30 PM 69.8°F21.0°C 48.7°F9.3°C 47% 6.9 mph SSW11.1 kmh SSW 15.2 mph24.5 kmh 30.48 in1032.2 mb 0.00 in0.0 mm 0.00 in0.0 mm 0.00 in0.0 mm
03:41 PM 69.8°F21.0°C 49.2°F9.6°C 48% 6.0 mph SW9.7 kmh SW 9.2 mph14.8 kmh 30.03 in1016.9 mb 0.00 in0.0 mm 0.00 in0.0 mm 0.00 in0.0 mm
03:45 PM 69.6°F20.9°C 49.1°F9.5°C 48% 9.2 mph SW14.8 kmh SW 17.4 mph28.0 kmh 30.47 in1031.8 mb 0.00 in0.0 mm 0.00 in0.0 mm 0.00 in0.0 mm
04:00 PM 69.4°F20.8°C 50.0°F10.0°C 50% 9.8 mph SW15.8 kmh SW 14.5 mph23.3 kmh 30.46 in1031.5 mb 0.00 in0.0 mm 0.00 in0.0 mm 0.00 in0.0 mm
04:11 PM 69.4°F20.8°C 50.0°F10.0°C 50% 6.0 mph SW9.7 kmh SW 8.3 mph13.4 kmh 30.02 in1016.6 mb 0.00 in0.0 mm 0.00 in0.0 mm 0.00 in0.0 mm
04:15 PM 69.1°F20.6°C 50.2°F10.1°C 51% 8.3 mph S13.4 kmh S 15.2 mph24.5 kmh 30.45 in1031.2 mb 0.00 in0.0 mm 0.00 in0.0 mm 0.00 in0.0 mm
04:30 PM 68.9°F20.5°C 50.5°F10.3°C 52% 8.3 mph S13.4 kmh S 14.5 mph23.3 kmh 30.45 in1031.2 mb 0.00 in0.0 mm 0.00 in0.0 mm 0.00 in0.0 mm
04:41 PM 68.9°F20.5°C 50.5°F10.3°C 52% 9.8 mph SW15.8 kmh SW 12.1 mph19.5 kmh 30.00 in1015.9 mb 0.00 in0.0 mm 0.00 in0.0 mm 0.00 in0.0 mm
04:45 PM 68.4°F20.2°C 50.6°F10.3°C 53% 5.4 mph SW8.7 kmh SW 9.2 mph14.8 kmh 30.44 in1030.8 mb 0.00 in0.0 mm 0.00 in0.0 mm 0.00 in0.0 mm
05:11 PM 67.8°F19.9°C 50.6°F10.3°C 54% 5.4 mph S8.7 kmh S 11.4 mph18.3 kmh 29.98 in1015.2 mb 0.00 in0.0 mm 0.00 in0.0 mm 0.00 in0.0 mm
05:15 PM 67.5°F19.7°C 50.7°F10.4°C 55% 3.8 mph SSW6.1 kmh SSW 11.4 mph18.3 kmh 30.43 in1030.5 mb 0.00 in0.0 mm 0.00 in0.0 mm 0.00 in0.0 mm
05:30 PM 66.9°F19.4°C 50.7°F10.4°C 56% 4.5 mph SSW7.2 kmh SSW 12.1 mph19.5 kmh 30.43 in1030.5 mb 0.00 in0.0 mm 0.00 in0.0 mm 0.00 in0.0 mm
05:41 PM 66.7°F19.3°C 51.0°F10.6°C 57% 6.9 mph S11.1 kmh S 8.3 mph13.4 kmh 29.98 in1015.2 mb 0.00 in0.0 mm 0.00 in0.0 mm 0.00 in0.0 mm
05:45 PM 66.0°F18.9°C 50.8°F10.4°C 58% 5.4 mph SSW8.7 kmh SSW 8.3 mph13.4 kmh 30.42 in1030.1 mb 0.00 in0.0 mm 0.00 in0.0 mm 0.00 in0.0 mm
06:00 PM 65.3°F18.5°C 51.1°F10.6°C 60% 3.8 mph S6.1 kmh S 8.3 mph13.4 kmh 30.42 in1030.1 mb 0.00 in0.0 mm 0.00 in0.0 mm 0.00 in0.0 mm
06:11 PM 65.1°F18.4°C 50.9°F10.5°C 60% 5.4 mph SW8.7 kmh SW 7.6 mph12.2 kmh 29.98 in1015.2 mb 0.00 in0.0 mm 0.00 in0.0 mm 0.00 in0.0 mm
06:15 PM 64.4°F18.0°C 50.7°F10.4°C 61% 3.1 mph SSW5.0 kmh SSW 7.6 mph12.2 kmh 30.42 in1030.1 mb 0.00 in0.0 mm 0.00 in0.0 mm 0.00 in0.0 mm
06:30 PM 64.2°F17.9°C 50.5°F10.3°C 61% 8.3 mph SSW13.4 kmh SSW 10.7 mph17.2 kmh 30.41 in1029.8 mb 0.00 in0.0 mm 0.00 in0.0 mm 0.00 in0.0 mm
06:41 PM 64.0°F17.8°C 50.3°F10.2°C 61% 5.4 mph S8.7 kmh S 8.3 mph13.4 kmh 29.97 in1014.9 mb 0.00 in0.0 mm 0.00 in0.0 mm 0.00 in0.0 mm
06:45 PM 64.0°F17.8°C 50.3°F10.2°C 61% 6.0 mph SSW9.7 kmh SSW 9.2 mph14.8 kmh 30.41 in1029.8 mb 0.00 in0.0 mm 0.00 in0.0 mm 0.00 in0.0 mm
07:00 PM 63.9°F17.7°C 50.1°F10.1°C 61% 3.1 mph S5.0 kmh S 9.8 mph15.8 kmh 30.42 in1030.1 mb 0.00 in0.0 mm 0.00 in0.0 mm 0.00 in0.0 mm
07:11 PM 63.9°F17.7°C 50.1°F10.1°C 61% 3.1 mph S5.0 kmh S 4.5 mph7.2 kmh 29.97 in1014.9 mb 0.00 in0.0 mm 0.00 in0.0 mm 0.00 in0.0 mm
07:15 PM 63.1°F17.3°C 51.2°F10.7°C 65% 6.9 mph SSW11.1 kmh SSW 9.2 mph14.8 kmh 30.41 in1029.8 mb 0.00 in0.0 mm 0.00 in0.0 mm 0.00 in0.0 mm
07:30 PM 63.0°F17.2°C 51.4°F10.8°C 66% 5.4 mph S8.7 kmh S 7.6 mph12.2 kmh 30.41 in1029.8 mb 0.00 in0.0 mm 0.00 in0.0 mm 0.00 in0.0 mm
07:41 PM 63.0°F17.2°C 51.4°F10.8°C 66% 6.0 mph S9.7 kmh S 9.2 mph14.8 kmh 29.96 in1014.6 mb 0.00 in0.0 mm 0.00 in0.0 mm 0.00 in0.0 mm
07:45 PM 62.8°F17.1°C 51.7°F10.9°C 67% 4.5 mph SSW7.2 kmh SSW 9.2 mph14.8 kmh 30.41 in1029.8 mb 0.00 in0.0 mm 0.00 in0.0 mm 0.00 in0.0 mm
08:00 PM 63.0°F17.2°C 52.2°F11.2°C 68% 3.8 mph S6.1 kmh S 7.6 mph12.2 kmh 30.41 in1029.8 mb 0.00 in0.0 mm 0.00 in0.0 mm 0.00 in0.0 mm
08:11 PM 63.0°F17.2°C 52.2°F11.2°C 68% 3.1 mph SW5.0 kmh SW 4.5 mph7.2 kmh 29.97 in1014.9 mb 0.00 in0.0 mm 0.00 in0.0 mm 0.00 in0.0 mm
08:15 PM 63.3°F17.4°C 52.6°F11.4°C 68% 6.9 mph SSW11.1 kmh SSW 8.3 mph13.4 kmh 30.41 in1029.8 mb 0.00 in0.0 mm 0.00 in0.0 mm 0.00 in0.0 mm
08:30 PM 63.5°F17.5°C 50.7°F10.4°C 63% 3.8 mph SSW6.1 kmh SSW 6.9 mph11.1 kmh 30.42 in1030.1 mb 0.00 in0.0 mm 0.00 in0.0 mm 0.00 in0.0 mm
08:41 PM 63.5°F17.5°C 50.7°F10.4°C 63% 7.6 mph W12.2 kmh W 9.8 mph15.8 kmh 29.97 in1014.9 mb 0.00 in0.0 mm 0.00 in0.0 mm 0.00 in0.0 mm
08:45 PM 63.3°F17.4°C 52.2°F11.2°C 67% 0.7 mph SW1.1 kmh SW 6.0 mph9.7 kmh 30.41 in1029.8 mb 0.00 in0.0 mm 0.00 in0.0 mm 0.00 in0.0 mm
09:00 PM 63.0°F17.2°C 51.8°F11.0°C 67% 4.5 mph WSW7.2 kmh WSW 6.0 mph9.7 kmh 30.41 in1029.8 mb 0.00 in0.0 mm 0.00 in0.0 mm 0.00 in0.0 mm
09:11 PM 63.0°F17.2°C 51.8°F11.0°C 67% 2.2 mph S3.5 kmh S 3.8 mph6.1 kmh 29.97 in1014.9 mb 0.00 in0.0 mm 0.00 in0.0 mm 0.00 in0.0 mm
09:15 PM 63.0°F17.2°C 51.4°F10.8°C 66% 4.5 mph WSW7.2 kmh WSW 9.8 mph15.8 kmh 30.41 in1029.8 mb 0.00 in0.0 mm 0.00 in0.0 mm 0.00 in0.0 mm
09:30 PM 63.5°F17.5°C 49.8°F9.9°C 61% 3.8 mph WSW6.1 kmh WSW 6.9 mph11.1 kmh 30.41 in1029.8 mb 0.00 in0.0 mm 0.00 in0.0 mm 0.00 in0.0 mm
09:41 PM 63.5°F17.5°C 49.8°F9.9°C 61% 3.8 mph SW6.1 kmh SW 5.4 mph8.7 kmh 29.96 in1014.6 mb 0.00 in0.0 mm 0.00 in0.0 mm 0.00 in0.0 mm
09:45 PM 63.7°F17.6°C 49.5°F9.7°C 60% 3.1 mph SW5.0 kmh SW 8.3 mph13.4 kmh 30.41 in1029.8 mb 0.00 in0.0 mm 0.00 in0.0 mm 0.00 in0.0 mm
10:00 PM 63.7°F17.6°C 49.5°F9.7°C 60% 6.0 mph SW9.7 kmh SW 9.2 mph14.8 kmh 30.39 in1029.1 mb 0.00 in0.0 mm 0.00 in0.0 mm 0.00 in0.0 mm
10:11 PM 63.7°F17.6°C 49.1°F9.5°C 59% 3.8 mph SW6.1 kmh SW 6.9 mph11.1 kmh 29.95 in1014.2 mb 0.00 in0.0 mm 0.00 in0.0 mm 0.00 in0.0 mm
10:15 PM 63.7°F17.6°C 48.6°F9.2°C 58% 2.2 mph WSW3.5 kmh WSW 12.1 mph19.5 kmh 30.39 in1029.1 mb 0.00 in0.0 mm 0.00 in0.0 mm 0.00 in0.0 mm
10:30 PM 63.9°F17.7°C 47.4°F8.6°C 55% 6.0 mph SW9.7 kmh SW 16.8 mph27.0 kmh 30.40 in1029.5 mb 0.00 in0.0 mm 0.00 in0.0 mm 0.00 in0.0 mm
10:41 PM 64.0°F17.8°C 47.5°F8.6°C 55% 8.3 mph S13.4 kmh S 10.7 mph17.2 kmh 29.95 in1014.2 mb 0.00 in0.0 mm 0.00 in0.0 mm 0.00 in0.0 mm
10:45 PM 63.9°F17.7°C 46.9°F8.3°C 54% 6.0 mph WSW9.7 kmh WSW 11.4 mph18.3 kmh 30.39 in1029.1 mb 0.00 in0.0 mm 0.00 in0.0 mm 0.00 in0.0 mm
11:00 PM 63.7°F17.6°C 46.2°F7.9°C 53% 3.8 mph SW6.1 kmh SW 9.2 mph14.8 kmh 30.39 in1029.1 mb 0.00 in0.0 mm 0.00 in0.0 mm 0.00 in0.0 mm
11:11 PM 63.7°F17.6°C 46.2°F7.9°C 53% 3.1 mph SW5.0 kmh SW 5.4 mph8.7 kmh 29.95 in1014.2 mb 0.00 in0.0 mm 0.00 in0.0 mm 0.00 in0.0 mm
11:15 PM 63.5°F17.5°C 46.1°F7.8°C 53% 6.9 mph SW11.1 kmh SW 9.8 mph15.8 kmh 30.39 in1029.1 mb 0.00 in0.0 mm 0.00 in0.0 mm 0.00 in0.0 mm
11:30 PM 63.5°F17.5°C 45.6°F7.6°C 52% 7.6 mph WSW12.2 kmh WSW 10.7 mph17.2 kmh 30.40 in1029.5 mb 0.00 in0.0 mm 0.00 in0.0 mm 0.00 in0.0 mm
11:41 PM 63.7°F17.6°C 45.2°F7.3°C 51% 3.1 mph NW5.0 kmh NW 4.5 mph7.2 kmh 29.95 in1014.2 mb 0.00 in0.0 mm 0.00 in0.0 mm 0.00 in0.0 mm
11:45 PM 63.7°F17.6°C 44.7°F7.1°C 50% 4.5 mph WSW7.2 kmh WSW 10.7 mph17.2 kmh 30.40 in1029.5 mb 0.00 in0.0 mm 0.00 in0.0 mm 0.00 in0.0 mm